createdAt,value
2023-04-07T00:00:24.370Z,22.02
2023-04-07T00:02:50.812Z,14.45
2023-04-07T00:05:17.360Z,11.75
2023-04-07T00:07:55.182Z,13.82
2023-04-07T00:10:22.720Z,11.57
2023-04-07T00:12:49.126Z,9.48
2023-04-07T00:15:15.722Z,11.93
2023-04-07T00:17:42.161Z,13.00
2023-04-07T00:20:08.901Z,11.07
2023-04-07T00:22:37.630Z,10.45
2023-04-07T00:25:04.349Z,11.82
2023-04-07T00:27:30.870Z,10.52
2023-04-07T00:29:57.374Z,11.00
2023-04-07T00:32:23.821Z,10.00
2023-04-07T00:34:50.265Z,12.57
2023-04-07T00:37:16.716Z,19.77
2023-04-07T00:39:43.112Z,12.05
2023-04-07T00:42:09.815Z,11.60
2023-04-07T00:44:36.227Z,12.73
2023-04-07T00:47:02.612Z,10.80
2023-04-07T00:49:29.237Z,10.48
2023-04-07T00:51:56.543Z,11.02
2023-04-07T00:54:26.057Z,13.02
2023-04-07T00:56:53.428Z,11.35
2023-04-07T00:59:20.056Z,12.25
2023-04-07T01:01:52.608Z,13.10
2023-04-07T01:04:35.992Z,10.88
2023-04-07T01:07:26.147Z,9.90
2023-04-07T01:09:58.671Z,9.30
2023-04-07T01:12:34.244Z,9.90
2023-04-07T01:15:06.063Z,9.07
2023-04-07T01:17:33.061Z,9.98
2023-04-07T01:20:05.166Z,12.05
2023-04-07T01:22:43.942Z,10.45
2023-04-07T01:25:45.677Z,10.07
2023-04-07T01:28:33.976Z,9.68
2023-04-07T01:31:01.618Z,10.35
2023-04-07T01:33:32.002Z,9.57
2023-04-07T01:36:00.016Z,9.38
2023-04-07T01:38:26.688Z,11.57
2023-04-07T01:40:54.463Z,9.90
2023-04-07T01:43:21.360Z,10.07
2023-04-07T01:45:47.749Z,9.05
2023-04-07T01:48:15.686Z,10.23
2023-04-07T01:50:42.937Z,9.27
2023-04-07T01:53:09.673Z,11.63
2023-04-07T01:55:36.117Z,10.93
2023-04-07T01:58:06.662Z,10.18
2023-04-07T02:00:34.330Z,10.60
2023-04-07T02:03:08.728Z,10.93
2023-04-07T02:05:36.038Z,12.73
2023-04-07T02:08:05.283Z,14.88
2023-04-07T02:10:35.464Z,12.70
2023-04-07T02:13:04.112Z,11.35
2023-04-07T02:15:32.104Z,11.23
2023-04-07T02:17:59.491Z,10.55
2023-04-07T02:20:26.436Z,11.85
2023-04-07T02:22:53.731Z,12.50
2023-04-07T02:25:27.983Z,13.73
2023-04-07T02:27:55.303Z,11.88
2023-04-07T02:30:22.029Z,12.32
2023-04-07T02:32:48.477Z,11.27
2023-04-07T02:35:16.599Z,11.68
2023-04-07T02:37:43.985Z,12.63
2023-04-07T02:40:11.011Z,12.43
2023-04-07T02:42:37.483Z,19.45
2023-04-07T02:45:04.934Z,20.15
2023-04-07T02:47:31.705Z,20.42
2023-04-07T02:49:58.175Z,19.20
2023-04-07T02:52:24.580Z,12.95
2023-04-07T02:54:51.130Z,13.20
2023-04-07T02:57:17.479Z,14.20
2023-04-07T02:59:44.028Z,17.35
2023-04-07T03:02:10.623Z,13.52
2023-04-07T03:04:37.283Z,12.65
2023-04-07T03:07:03.686Z,11.32
2023-04-07T03:09:30.083Z,12.20
2023-04-07T03:11:56.571Z,12.90
2023-04-07T03:14:22.950Z,14.60
2023-04-07T03:16:49.342Z,15.52
2023-04-07T03:19:16.334Z,18.30
2023-04-07T03:21:42.722Z,18.88
2023-04-07T03:24:09.158Z,15.27
2023-04-07T03:26:35.595Z,17.65
2023-04-07T03:29:01.956Z,19.30
2023-04-07T03:31:28.349Z,14.23
2023-04-07T03:33:54.856Z,14.48
2023-04-07T03:36:21.400Z,14.38
2023-04-07T03:38:48.250Z,13.70
2023-04-07T03:41:14.658Z,13.50
2023-04-07T03:43:41.304Z,13.90
2023-04-07T03:46:07.806Z,14.85
2023-04-07T03:48:34.214Z,17.67
2023-04-07T03:51:00.637Z,14.73
2023-04-07T03:53:27.110Z,13.63
2023-04-07T03:55:53.592Z,12.77
2023-04-07T03:58:20.266Z,12.88
2023-04-07T04:00:46.649Z,13.60
2023-04-07T04:03:13.098Z,16.98
2023-04-07T04:05:40.435Z,14.32
2023-04-07T04:08:06.868Z,12.93
2023-04-07T04:10:33.271Z,14.52
2023-04-07T04:13:06.511Z,14.10
2023-04-07T04:15:32.905Z,15.55
2023-04-07T04:17:59.432Z,15.07
2023-04-07T04:20:25.846Z,15.20
2023-04-07T04:22:52.353Z,14.32
2023-04-07T04:25:19.032Z,15.82
2023-04-07T04:27:45.645Z,16.65
2023-04-07T04:30:12.282Z,18.48
2023-04-07T04:32:39.451Z,16.10
2023-04-07T04:35:06.361Z,15.82
2023-04-07T04:37:32.725Z,16.52
2023-04-07T04:39:59.257Z,16.98
2023-04-07T04:42:27.768Z,17.75
2023-04-07T04:44:54.184Z,18.30
2023-04-07T04:47:20.611Z,19.65
2023-04-07T04:49:47.122Z,18.60
2023-04-07T04:52:13.482Z,18.50
2023-04-07T04:54:39.886Z,18.98
2023-04-07T04:57:06.532Z,19.50
2023-04-07T04:59:33.875Z,20.67
2023-04-07T05:02:00.390Z,21.65
2023-04-07T05:04:28.346Z,22.00
2023-04-07T05:06:54.929Z,18.58
2023-04-07T05:09:21.322Z,18.95
2023-04-07T05:11:47.969Z,22.42
2023-04-07T05:14:14.411Z,20.60
2023-04-07T05:16:41.412Z,21.15
2023-04-07T05:19:08.793Z,19.73
2023-04-07T05:21:35.289Z,18.55
2023-04-07T05:24:01.890Z,18.48
2023-04-07T05:26:28.343Z,19.55
2023-04-07T05:28:54.734Z,18.40
2023-04-07T05:31:21.235Z,18.08
2023-04-07T05:33:47.668Z,18.83
2023-04-07T05:36:14.090Z,17.40
2023-04-07T05:38:41.193Z,18.60
2023-04-07T05:41:07.648Z,17.92
2023-04-07T05:43:34.032Z,18.73
2023-04-07T05:46:00.522Z,19.08
2023-04-07T05:48:26.987Z,17.73
2023-04-07T05:50:53.505Z,17.48
2023-04-07T05:53:21.091Z,16.75
2023-04-07T05:55:47.725Z,16.98
2023-04-07T05:58:14.146Z,16.85
2023-04-07T06:00:41.474Z,18.15
2023-04-07T06:03:08.023Z,18.23
2023-04-07T06:05:34.701Z,17.17
2023-04-07T06:08:01.144Z,18.58
2023-04-07T06:10:27.558Z,17.83
2023-04-07T06:12:53.926Z,17.40
2023-04-07T06:15:20.331Z,17.33
2023-04-07T06:17:46.724Z,15.75
2023-04-07T06:20:13.145Z,16.15
2023-04-07T06:22:39.495Z,16.42
2023-04-07T06:25:06.928Z,17.55
2023-04-07T06:27:33.518Z,16.48
2023-04-07T06:29:59.962Z,16.52
2023-04-07T06:32:26.403Z,16.98
2023-04-07T06:34:52.810Z,16.38
2023-04-07T06:37:19.256Z,15.73
2023-04-07T06:39:45.740Z,16.17
2023-04-07T06:42:12.137Z,16.35
2023-04-07T06:44:38.588Z,16.25
2023-04-07T06:47:04.976Z,16.02
2023-04-07T06:49:31.337Z,16.10
2023-04-07T06:51:57.695Z,15.23
2023-04-07T06:54:24.141Z,14.52
2023-04-07T06:56:51.899Z,14.82
2023-04-07T06:59:19.884Z,14.10
2023-04-07T07:01:46.373Z,13.27
2023-04-07T07:04:12.896Z,13.60
2023-04-07T07:06:39.424Z,13.52
2023-04-07T07:09:05.784Z,13.75
2023-04-07T07:11:32.194Z,12.85
2023-04-07T07:13:58.551Z,13.13
2023-04-07T07:16:24.960Z,13.43
2023-04-07T07:18:51.387Z,15.25
2023-04-07T07:21:18.810Z,13.77
2023-04-07T07:23:45.870Z,14.38
2023-04-07T07:26:12.521Z,15.43
2023-04-07T07:28:38.991Z,15.82
2023-04-07T07:31:10.382Z,16.67
2023-04-07T07:33:36.755Z,16.10
2023-04-07T07:36:03.154Z,15.02
2023-04-07T07:38:29.525Z,14.43
2023-04-07T07:40:55.949Z,14.43
2023-04-07T07:43:22.314Z,15.35
2023-04-07T07:45:48.703Z,14.60
2023-04-07T07:48:15.397Z,14.98
2023-04-07T07:50:42.510Z,13.95
2023-04-07T07:53:09.249Z,13.40
2023-04-07T07:55:35.671Z,14.05
2023-04-07T07:58:02.036Z,13.73
2023-04-07T08:00:28.662Z,12.88
2023-04-07T08:02:55.312Z,12.80
2023-04-07T08:05:21.861Z,13.18
2023-04-07T08:07:48.788Z,13.50
2023-04-07T08:10:15.459Z,12.48
2023-04-07T08:12:41.927Z,13.32
2023-04-07T08:15:10.243Z,10.93
2023-04-07T08:17:36.748Z,10.52
2023-04-07T08:20:03.710Z,10.80
2023-04-07T08:22:30.144Z,10.63
2023-04-07T08:24:56.565Z,11.10
2023-04-07T08:27:22.945Z,11.57
2023-04-07T08:29:58.768Z,10.75
2023-04-07T08:32:25.437Z,9.63
2023-04-07T08:34:51.884Z,10.60
2023-04-07T08:37:18.239Z,10.07
2023-04-07T08:39:44.633Z,11.13
2023-04-07T08:42:12.451Z,10.50
2023-04-07T08:44:39.105Z,10.18
2023-04-07T08:47:07.914Z,10.07
2023-04-07T08:49:37.483Z,9.30
2023-04-07T08:52:07.927Z,9.05
2023-04-07T08:54:36.006Z,8.98
2023-04-07T08:57:02.887Z,9.70
2023-04-07T08:59:29.695Z,9.15
2023-04-07T09:01:56.546Z,10.90
2023-04-07T09:04:24.608Z,9.63
2023-04-07T09:06:51.001Z,8.68
2023-04-07T09:09:17.398Z,10.15
2023-04-07T09:11:43.915Z,9.00
2023-04-07T09:14:10.791Z,8.88
2023-04-07T09:16:37.846Z,8.50
2023-04-07T09:19:04.279Z,8.27
2023-04-07T09:21:48.436Z,8.20
2023-04-07T09:24:25.931Z,8.93
2023-04-07T09:27:13.939Z,8.90
2023-04-07T09:29:43.757Z,8.73
2023-04-07T09:32:11.016Z,8.88
2023-04-07T09:34:41.409Z,8.38
2023-04-07T09:37:09.510Z,8.98
2023-04-07T09:39:50.449Z,8.48
2023-04-07T09:42:17.061Z,9.80
2023-04-07T09:44:44.194Z,9.68
2023-04-07T09:47:11.152Z,9.25
2023-04-07T09:49:53.411Z,10.02
2023-04-07T09:52:23.416Z,10.63
2023-04-07T09:54:51.184Z,10.98
2023-04-07T09:57:18.550Z,10.38
2023-04-07T09:59:45.042Z,10.18
2023-04-07T10:02:12.708Z,10.35
2023-04-07T10:04:40.408Z,11.68
2023-04-07T10:07:06.872Z,10.82
2023-04-07T10:09:33.315Z,11.98
2023-04-07T10:12:00.047Z,10.95
2023-04-07T10:14:28.167Z,11.63
2023-04-07T10:16:54.898Z,12.10
2023-04-07T10:19:22.738Z,11.60
2023-04-07T10:21:51.761Z,11.18
2023-04-07T10:24:30.370Z,11.95
2023-04-07T10:27:01.438Z,11.32
2023-04-07T10:29:29.872Z,10.88
2023-04-07T10:31:56.515Z,10.52
2023-04-07T10:34:48.530Z,10.27
2023-04-07T10:37:17.644Z,10.35
2023-04-07T10:39:44.004Z,9.30
2023-04-07T10:42:39.093Z,9.30
2023-04-07T10:45:09.381Z,8.60
2023-04-07T10:47:58.852Z,10.52
2023-04-07T10:50:25.781Z,9.85
2023-04-07T10:53:15.162Z,9.93
2023-04-07T10:55:44.460Z,10.10
2023-04-07T10:58:23.959Z,9.90
2023-04-07T11:01:10.667Z,10.18
2023-04-07T11:03:39.126Z,9.60
2023-04-07T11:06:14.813Z,10.35
2023-04-07T11:08:42.763Z,9.45
2023-04-07T11:11:11.600Z,8.68
2023-04-07T11:13:48.098Z,8.55
2023-04-07T11:16:19.417Z,8.45
2023-04-07T11:18:47.723Z,7.43
2023-04-07T11:21:18.448Z,7.35
2023-04-07T11:23:46.547Z,7.95
2023-04-07T11:26:14.247Z,7.60
2023-04-07T11:28:52.657Z,7.85
2023-04-07T11:31:26.358Z,8.02
2023-04-07T11:33:55.006Z,7.88
2023-04-07T11:36:37.560Z,7.88
2023-04-07T11:39:04.128Z,7.63
2023-04-07T11:41:32.723Z,7.80
2023-04-07T11:44:06.351Z,7.80
2023-04-07T11:46:32.808Z,8.50
2023-04-07T11:49:12.986Z,8.57
2023-04-07T11:51:39.608Z,8.32
2023-04-07T11:54:06.027Z,8.20
2023-04-07T11:56:42.834Z,7.45
2023-04-07T11:59:09.331Z,7.05
2023-04-07T12:01:41.622Z,6.32
2023-04-07T12:04:13.261Z,6.85
2023-04-07T12:06:41.456Z,6.97
2023-04-07T12:09:08.872Z,7.53
2023-04-07T12:11:36.396Z,7.68
2023-04-07T12:14:05.029Z,7.45
2023-04-07T12:16:31.474Z,6.88
2023-04-07T12:18:57.948Z,7.05
2023-04-07T12:21:26.677Z,7.78
2023-04-07T12:23:53.092Z,9.02
2023-04-07T12:26:21.779Z,6.32
2023-04-07T12:28:49.525Z,3.70
2023-04-07T12:31:15.933Z,3.67
2023-04-07T12:33:42.407Z,3.72
2023-04-07T12:36:08.851Z,3.72
2023-04-07T12:38:35.242Z,3.78
2023-04-07T12:41:03.478Z,3.88
2023-04-07T12:43:30.929Z,3.60
2023-04-07T12:45:57.573Z,3.10
2023-04-07T12:48:24.752Z,3.10
2023-04-07T12:50:52.035Z,3.10
2023-04-07T12:53:18.409Z,3.45
2023-04-07T12:55:44.786Z,3.08
2023-04-07T12:58:11.166Z,3.08
2023-04-07T13:00:37.517Z,3.10
2023-04-07T13:03:04.124Z,3.55
2023-04-07T13:05:30.579Z,3.67
2023-04-07T13:07:56.964Z,4.05
2023-04-07T13:10:23.344Z,2.97
2023-04-07T13:12:49.966Z,3.45
2023-04-07T13:15:16.568Z,3.15
2023-04-07T13:17:43.147Z,3.88
2023-04-07T13:20:09.747Z,3.97
2023-04-07T13:22:36.295Z,3.08
2023-04-07T13:25:02.934Z,3.13
2023-04-07T13:27:29.362Z,3.25
2023-04-07T13:29:56.009Z,3.53
2023-04-07T13:32:23.485Z,3.33
2023-04-07T13:34:50.071Z,3.97
2023-04-07T13:37:16.625Z,3.42
2023-04-07T13:39:43.076Z,3.63
2023-04-07T13:42:10.904Z,3.90
2023-04-07T13:44:39.986Z,3.58
2023-04-07T13:47:06.390Z,3.60
2023-04-07T13:49:32.800Z,4.03
2023-04-07T13:51:59.298Z,4.15
2023-04-07T13:54:25.678Z,4.25
2023-04-07T13:56:52.686Z,3.97
2023-04-07T13:59:19.180Z,4.03
2023-04-07T14:01:45.649Z,3.72
2023-04-07T14:04:12.332Z,4.07
2023-04-07T14:06:38.845Z,4.35
2023-04-07T14:09:06.347Z,4.22
2023-04-07T14:11:34.535Z,4.15
2023-04-07T14:14:01.778Z,4.05
2023-04-07T14:16:28.505Z,4.90
2023-04-07T14:18:56.193Z,4.10
2023-04-07T14:21:22.959Z,5.05
2023-04-07T14:23:49.411Z,7.25
2023-04-07T14:26:15.902Z,7.35
2023-04-07T14:28:42.667Z,5.22
2023-04-07T14:31:14.067Z,4.75
2023-04-07T14:33:40.468Z,4.40
2023-04-07T14:36:06.994Z,5.07
2023-04-07T14:38:35.199Z,4.80
2023-04-07T14:43:32.548Z,5.28
2023-04-07T14:45:59.780Z,5.32
2023-04-07T14:48:26.586Z,4.50
2023-04-07T14:51:02.515Z,4.88
2023-04-07T14:53:35.470Z,4.38
2023-04-07T14:56:05.100Z,5.95
2023-04-07T14:58:31.923Z,4.50
2023-04-07T15:00:58.417Z,4.15
2023-04-07T15:03:25.148Z,4.35
2023-04-07T15:05:51.709Z,4.82
2023-04-07T15:08:18.092Z,4.13
2023-04-07T15:10:44.644Z,5.30
2023-04-07T15:13:11.129Z,5.70
2023-04-07T15:15:37.674Z,4.60
2023-04-07T15:18:04.362Z,4.53
2023-04-07T15:20:30.822Z,5.53
2023-04-07T15:23:00.362Z,5.20
2023-04-07T15:25:26.863Z,5.00
2023-04-07T15:27:53.496Z,5.07
2023-04-07T15:30:19.910Z,5.13
2023-04-07T15:33:00.299Z,4.50
2023-04-07T15:35:27.305Z,4.50
2023-04-07T15:37:53.715Z,4.07
2023-04-07T15:40:20.716Z,4.60
2023-04-07T15:42:47.088Z,4.35
2023-04-07T15:45:13.592Z,4.43
2023-04-07T15:47:40.200Z,4.30
2023-04-07T15:50:07.389Z,4.05
2023-04-07T15:52:33.784Z,3.95
2023-04-07T15:55:00.228Z,3.83
2023-04-07T15:57:26.605Z,3.90
2023-04-07T15:59:52.968Z,3.97
2023-04-07T16:02:19.411Z,3.95
2023-04-07T16:04:47.340Z,4.10
2023-04-07T16:07:13.726Z,3.90
2023-04-07T16:09:40.088Z,3.83
2023-04-07T16:12:06.714Z,3.60
2023-04-07T16:14:33.105Z,3.40
2023-04-07T16:16:59.587Z,3.42
2023-04-07T16:19:26.299Z,3.45
2023-04-07T16:21:52.945Z,3.00
2023-04-07T16:24:19.385Z,3.42
2023-04-07T16:26:52.374Z,3.42
2023-04-07T16:29:19.337Z,3.03
2023-04-07T16:31:45.867Z,3.60
2023-04-07T16:34:12.481Z,3.47
2023-04-07T16:36:38.978Z,3.42
2023-04-07T16:39:05.480Z,4.20
2023-04-07T16:41:31.888Z,4.32
2023-04-07T16:43:58.371Z,4.40
2023-04-07T16:46:28.314Z,5.68
2023-04-07T16:48:54.860Z,5.15
2023-04-07T16:51:21.394Z,5.90
2023-04-07T16:53:47.989Z,7.05
2023-04-07T16:56:22.106Z,7.63
2023-04-07T16:58:49.006Z,8.35
2023-04-07T17:01:15.710Z,9.52
2023-04-07T17:03:42.441Z,9.77
2023-04-07T17:06:09.021Z,10.88
2023-04-07T17:08:36.285Z,10.90
2023-04-07T17:11:06.735Z,10.60
2023-04-07T17:13:33.357Z,9.48
2023-04-07T17:16:02.226Z,9.75
2023-04-07T17:18:28.709Z,8.80
2023-04-07T17:20:55.093Z,8.43
2023-04-07T17:23:21.592Z,7.85
2023-04-07T17:25:51.409Z,8.07
2023-04-07T17:28:17.851Z,7.47
2023-04-07T17:30:44.268Z,7.10
2023-04-07T17:33:12.055Z,7.07
2023-04-07T17:35:38.605Z,7.53
2023-04-07T17:38:05.446Z,8.70
2023-04-07T17:40:32.048Z,8.50
2023-04-07T17:42:59.980Z,9.73
2023-04-07T17:45:26.357Z,9.90
2023-04-07T17:47:52.961Z,9.98
2023-04-07T17:50:19.668Z,10.30
2023-04-07T17:52:46.152Z,10.13
2023-04-07T17:55:12.712Z,9.43
2023-04-07T17:57:40.221Z,9.68
2023-04-07T18:00:07.627Z,9.70
2023-04-07T18:02:34.643Z,9.68
2023-04-07T18:05:01.469Z,10.25
2023-04-07T18:07:29.192Z,12.00
2023-04-07T18:09:56.819Z,9.55
2023-04-07T18:12:23.663Z,10.77
2023-04-07T18:14:50.248Z,10.00
2023-04-07T18:17:16.647Z,9.65
2023-04-07T18:19:43.132Z,10.02
2023-04-07T18:22:12.317Z,9.95
2023-04-07T18:24:38.749Z,10.40
2023-04-07T18:27:05.398Z,10.20
2023-04-07T18:29:31.804Z,10.45
2023-04-07T18:31:58.278Z,9.95
2023-04-07T18:34:26.076Z,10.30
2023-04-07T18:36:53.662Z,10.93
2023-04-07T18:39:20.143Z,11.82
2023-04-07T18:41:48.183Z,11.07
2023-04-07T18:44:14.643Z,10.82
2023-04-07T18:46:41.413Z,10.32
2023-04-07T18:49:07.894Z,9.45
2023-04-07T18:51:35.021Z,8.95
2023-04-07T18:54:01.392Z,9.52
2023-04-07T18:56:28.260Z,9.60
2023-04-07T18:58:54.684Z,9.40
2023-04-07T19:01:21.540Z,9.38
2023-04-07T19:03:48.362Z,9.50
2023-04-07T19:06:15.900Z,10.98
2023-04-07T19:08:42.954Z,12.43
2023-04-07T19:11:10.062Z,12.77
2023-04-07T19:13:36.468Z,12.65
2023-04-07T19:16:03.111Z,13.75
2023-04-07T19:18:31.474Z,12.52
2023-04-07T19:20:57.829Z,12.35
2023-04-07T19:23:24.172Z,13.35
2023-04-07T19:25:50.600Z,12.68
2023-04-07T19:28:17.029Z,12.80
2023-04-07T19:30:43.375Z,11.63
2023-04-07T19:33:10.039Z,12.77
2023-04-07T19:35:38.799Z,11.57
2023-04-07T19:38:06.770Z,12.52
2023-04-07T19:40:33.454Z,12.50
2023-04-07T19:43:00.355Z,13.45
2023-04-07T19:45:26.809Z,13.05
2023-04-07T19:47:54.313Z,12.95
2023-04-07T19:50:20.784Z,12.30
2023-04-07T19:52:47.262Z,12.32
2023-04-07T19:55:13.938Z,13.52
2023-04-07T19:57:40.414Z,14.60
2023-04-07T20:00:09.016Z,15.60
2023-04-07T20:02:36.408Z,17.27
2023-04-07T20:05:03.535Z,18.98
2023-04-07T20:07:31.401Z,21.98
2023-04-07T20:09:57.994Z,22.98
2023-04-07T20:12:24.420Z,22.33
2023-04-07T20:14:51.034Z,23.92
2023-04-07T20:17:17.490Z,26.10
2023-04-07T20:19:43.859Z,27.75
2023-04-07T20:22:10.334Z,31.77
2023-04-07T20:24:37.204Z,34.17
2023-04-07T20:27:03.681Z,35.03
2023-04-07T20:29:30.058Z,39.72
2023-04-07T20:31:56.517Z,40.28
2023-04-07T20:34:22.882Z,40.53
2023-04-07T20:36:49.254Z,39.80
2023-04-07T20:39:16.414Z,35.90
2023-04-07T20:41:44.955Z,40.42
2023-04-07T20:44:12.109Z,43.33
2023-04-07T20:46:38.584Z,44.60
2023-04-07T20:49:07.532Z,48.38
2023-04-07T20:51:36.617Z,55.83
2023-04-07T20:54:03.721Z,55.45
2023-04-07T20:56:30.211Z,53.03
2023-04-07T20:58:56.576Z,56.78
2023-04-07T21:01:23.120Z,57.47
2023-04-07T21:03:49.666Z,59.90
2023-04-07T21:06:16.155Z,67.07
2023-04-07T21:08:42.521Z,74.15
2023-04-07T21:11:08.925Z,74.97
2023-04-07T21:13:35.288Z,95.80
2023-04-07T21:16:03.705Z,117.85
2023-04-07T21:18:30.619Z,106.30
2023-04-07T21:20:58.782Z,98.47
2023-04-07T21:23:25.337Z,101.65
2023-04-07T21:25:51.742Z,84.18
2023-04-07T21:28:18.129Z,95.60
2023-04-07T21:30:44.552Z,112.40
2023-04-07T21:33:12.319Z,96.13
2023-04-07T21:35:38.827Z,109.72
2023-04-07T21:38:05.212Z,131.75
2023-04-07T21:40:31.609Z,126.70
2023-04-07T21:42:58.095Z,142.50
2023-04-07T21:45:24.538Z,133.43
2023-04-07T21:47:51.041Z,128.27
2023-04-07T21:50:17.530Z,131.35
2023-04-07T21:52:43.969Z,133.73
2023-04-07T21:55:10.801Z,136.82
2023-04-07T21:57:38.490Z,143.35
2023-04-07T22:00:07.231Z,146.23
2023-04-07T22:02:33.969Z,126.78
2023-04-07T22:05:00.641Z,120.32
2023-04-07T22:07:27.122Z,131.70
2023-04-07T22:09:53.475Z,127.30
2023-04-07T22:12:19.851Z,135.05
2023-04-07T22:14:46.236Z,159.65
2023-04-07T22:17:12.600Z,159.23
2023-04-07T22:19:38.975Z,178.38
2023-04-07T22:22:07.610Z,172.35
2023-04-07T22:24:34.751Z,188.40
2023-04-07T22:27:04.619Z,200.82
2023-04-07T22:29:31.165Z,206.38
2023-04-07T22:31:57.703Z,230.68
2023-04-07T22:34:24.173Z,243.63
2023-04-07T22:36:50.732Z,240.32
2023-04-07T22:39:17.102Z,245.40
2023-04-07T22:41:43.569Z,271.52
2023-04-07T22:44:09.930Z,246.32
2023-04-07T22:46:36.324Z,258.20
2023-04-07T22:49:02.796Z,249.43
2023-04-07T22:51:29.342Z,230.70
2023-04-07T22:53:55.693Z,232.80
2023-04-07T22:56:22.162Z,259.67
2023-04-07T22:58:48.686Z,236.80
2023-04-07T23:01:15.603Z,218.52
2023-04-07T23:03:42.495Z,170.43
2023-04-07T23:06:08.962Z,168.63
2023-04-07T23:08:35.524Z,172.68
2023-04-07T23:11:02.010Z,165.00
2023-04-07T23:13:28.463Z,193.57
2023-04-07T23:15:54.892Z,180.27
2023-04-07T23:18:21.235Z,169.43
2023-04-07T23:20:54.039Z,169.57
2023-04-07T23:23:20.396Z,165.32
2023-04-07T23:25:46.801Z,183.38
2023-04-07T23:28:13.148Z,162.25
2023-04-07T23:30:39.541Z,161.85
2023-04-07T23:33:05.928Z,193.35
2023-04-07T23:35:32.343Z,230.23
2023-04-07T23:37:58.738Z,70.95
2023-04-07T23:40:25.277Z,73.50
2023-04-07T23:42:52.022Z,70.75
2023-04-07T23:45:20.114Z,70.03
2023-04-07T23:47:47.140Z,64.00
2023-04-07T23:50:13.666Z,76.88
2023-04-07T23:52:40.902Z,91.97
2023-04-07T23:55:07.530Z,83.30
2023-04-07T23:57:33.938Z,54.25
